Time;durP1;ratioP1;P1;durP2;ratioP2;P2;SDS_P1;SDS_P2;PMS_P1;PMS_P2;Temp;Humidity;BMP_temperature;BMP_pressure;BME280_temperature;BME280_humidity;BME280_pressure;Samples;Min_cycle;Max_cycle;Signal;HPM_P1;HPM_P2
2021/01/26 00:01:54;;;;;;;11.07;4.07;;;4.20;99.90;;;;;;6270784;22;20401;-85
2021/01/26 00:04:32;;;;;;;13.10;4.13;;;4.20;99.90;;;;;;6270988;22;20403;-86
2021/01/26 00:10:21;;;;;;;13.63;3.53;;;4.10;99.90;;;;;;6265826;22;20474;-86
2021/01/26 00:12:52;;;;;;;8.60;4.43;;;4.20;99.90;;;;;;6301124;22;20474;-86
2021/01/26 00:26:47;;;;;;;11.70;3.63;;;4.20;99.90;;;;;;6362335;22;20404;-86
2021/01/26 00:38:25;;;;;;;7.60;3.17;;;4.40;99.90;;;;;;6251382;22;20236;-85
2021/01/26 00:41:11;;;;;;;5.37;2.77;;;4.40;99.90;;;;;;6269312;23;20431;-85
2021/01/26 00:55:33;;;;;;;18.10;4.10;;;4.40;99.90;;;;;;6270052;22;20430;-86
2021/01/26 01:01:30;;;;;;;15.50;3.23;;;4.50;99.90;;;;;;6265778;22;20469;-85
2021/01/26 01:06:57;;;;;;;14.10;3.03;;;4.50;99.90;;;;;;6296324;22;20457;-86
2021/01/26 01:09:39;;;;;;;9.37;2.90;;;4.50;99.90;;;;;;6271788;22;20451;-86
2021/01/26 01:12:13;;;;;;;9.67;2.87;;;4.40;99.90;;;;;;6270098;22;20393;-86
2021/01/26 01:17:51;;;;;;;7.07;3.13;;;4.40;99.90;;;;;;5456526;22;18930731;-86
2021/01/26 01:23:29;;;;;;;9.57;3.00;;;4.40;99.90;;;;;;6274158;22;20446;-86
2021/01/26 01:26:05;;;;;;;8.77;3.07;;;4.40;99.90;;;;;;6299073;22;20430;-86
2021/01/26 01:32:35;;;;;;;14.27;2.97;;;4.50;99.90;;;;;;6296803;22;20453;-86
2021/01/26 01:35:36;;;;;;;7.33;2.80;;;4.60;99.90;;;;;;6299541;22;20418;-86
2021/01/26 01:38:22;;;;;;;6.77;3.17;;;4.50;99.90;;;;;;6299594;22;20374;-86
2021/01/26 01:46:41;;;;;;;4.47;2.13;;;4.30;99.90;;;;;;6298370;22;20450;-86
2021/01/26 01:58:40;;;;;;;10.10;2.67;;;4.40;99.90;;;;;;6293860;22;20458;-86
2021/01/26 02:01:38;;;;;;;6.27;2.40;;;4.30;99.90;;;;;;6300798;22;20405;-86
2021/01/26 02:09:48;;;;;;;12.07;3.77;;;4.40;99.90;;;;;;6277129;22;20448;-86
2021/01/26 02:15:21;;;;;;;8.33;3.17;;;4.40;99.90;;;;;;6318650;22;20413;-86
2021/01/26 02:18:29;;;;;;;9.37;3.17;;;4.30;99.90;;;;;;6252903;22;20458;-86
2021/01/26 02:25:08;;;;;;;5.13;2.53;;;4.30;99.90;;;;;;6323159;22;20450;-87
2021/01/26 02:38:22;;;;;;;8.53;3.83;;;4.20;99.90;;;;;;6300607;22;20268;-86
2021/01/26 02:44:00;;;;;;;9.80;3.03;;;4.30;99.90;;;;;;6331988;22;20441;-86
2021/01/26 02:49:46;;;;;;;7.37;3.40;;;4.40;99.90;;;;;;6299110;22;20446;-86
2021/01/26 02:52:29;;;;;;;9.50;3.10;;;4.20;99.90;;;;;;6297766;22;20474;-86
2021/01/26 02:55:09;;;;;;;8.10;2.90;;;4.10;99.90;;;;;;6316080;22;20459;-86
2021/01/26 02:57:45;;;;;;;7.87;2.80;;;4.20;99.90;;;;;;6330895;22;20437;-86
2021/01/26 03:00:18;;;;;;;7.60;2.87;;;4.10;99.90;;;;;;6332642;22;20412;-87
2021/01/26 03:05:54;;;;;;;9.43;3.83;;;4.20;99.90;;;;;;6325547;22;20425;-86
2021/01/26 03:08:38;;;;;;;6.73;3.00;;;4.30;99.90;;;;;;6333881;22;20476;-86
2021/01/26 03:11:25;;;;;;;8.87;2.90;;;4.20;99.90;;;;;;6334207;22;20478;-86
2021/01/26 03:14:20;;;;;;;8.47;2.70;;;4.30;99.90;;;;;;6333708;22;20433;-86
2021/01/26 03:17:16;;;;;;;17.50;3.20;;;4.20;99.90;;;;;;6272818;22;20432;-86
2021/01/26 03:20:08;;;;;;;9.30;2.93;;;4.20;99.90;;;;;;6259585;22;20455;-86
2021/01/26 03:22:42;;;;;;;8.23;3.10;;;4.20;99.90;;;;;;6243884;23;20439;-86
2021/01/26 03:25:24;;;;;;;8.83;3.27;;;4.00;99.90;;;;;;6270849;22;20432;-86
2021/01/26 03:28:23;;;;;;;5.93;2.60;;;3.90;99.90;;;;;;6271425;23;20404;-86
2021/01/26 03:31:19;;;;;;;10.90;3.10;;;4.00;99.90;;;;;;6268127;23;20422;-87
2021/01/26 03:33:55;;;;;;;8.57;2.40;;;4.00;99.90;;;;;;6245067;23;20438;-85
2021/01/26 03:36:52;;;;;;;6.03;2.73;;;3.80;99.90;;;;;;6268224;23;20411;-86
2021/01/26 03:42:08;;;;;;;8.83;2.90;;;4.00;99.90;;;;;;6247438;23;20396;-86
2021/01/26 03:45:06;;;;;;;6.20;2.43;;;3.80;99.90;;;;;;6269090;23;20419;-86
2021/01/26 03:48:33;;;;;;;4.60;2.03;;;4.10;99.90;;;;;;6271016;23;20390;-86
2021/01/26 03:54:55;;;;;;;9.77;2.90;;;4.20;99.90;;;;;;6240932;22;20443;-87
2021/01/26 03:58:29;;;;;;;6.93;3.70;;;4.20;99.90;;;;;;6239481;23;20430;-86
2021/01/26 04:01:05;;;;;;;4.50;2.57;;;4.20;99.90;;;;;;6240592;23;20408;-86
2021/01/26 04:09:19;;;;;;;5.50;2.43;;;4.30;99.90;;;;;;6268858;22;20605;-86
2021/01/26 04:11:58;;;;;;;8.57;3.07;;;4.20;99.90;;;;;;6268900;23;20407;-86
2021/01/26 04:15:04;;;;;;;5.87;2.70;;;4.00;99.90;;;;;;6247770;23;20542;-86
2021/01/26 04:17:51;;;;;;;10.23;3.00;;;3.80;99.90;;;;;;6274139;22;20465;-86
2021/01/26 04:29:25;;;;;;;6.63;3.00;;;3.70;99.90;;;;;;6298684;22;20442;-85
2021/01/26 04:34:44;;;;;;;11.82;3.50;;;3.60;99.90;;;;;;6326578;22;20387;-86
2021/01/26 04:37:24;;;;;;;9.67;2.63;;;3.60;99.90;;;;;;6324024;22;20268;-85
2021/01/26 04:45:46;;;;;;;6.87;2.80;;;3.90;99.90;;;;;;6301173;22;20450;-86
2021/01/26 04:48:44;;;;;;;6.27;2.50;;;3.80;99.90;;;;;;6297113;22;20395;-86
2021/01/26 04:58:37;;;;;;;8.80;2.80;;;3.70;99.90;;;;;;6361438;22;20476;-85
2021/01/26 05:01:20;;;;;;;9.13;3.00;;;3.40;99.90;;;;;;6335569;22;20404;-86
2021/01/26 05:10:07;;;;;;;8.10;3.17;;;3.50;99.90;;;;;;6299322;22;20441;-86
2021/01/26 05:12:42;;;;;;;11.13;3.33;;;3.50;99.90;;;;;;6325226;22;20466;-91
2021/01/26 05:15:16;;;;;;;4.60;3.10;;;3.60;99.90;;;;;;6277235;22;20430;-91
2021/01/26 05:17:47;;;;;;;6.27;2.60;;;3.40;99.90;;;;;;6277149;22;20457;-91
2021/01/26 05:20:18;;;;;;;8.67;2.90;;;3.30;99.90;;;;;;6277756;22;20429;-90
2021/01/26 05:22:50;;;;;;;8.52;3.30;;;3.30;99.90;;;;;;6281419;22;20392;-91
2021/01/26 05:25:20;;;;;;;8.03;2.63;;;3.30;99.90;;;;;;6283835;22;20240;-91
2021/01/26 05:27:48;;;;;;;7.60;2.70;;;3.20;99.90;;;;;;6283369;22;20399;-92
2021/01/26 05:30:25;;;;;;;5.27;2.80;;;3.00;99.90;;;;;;6285098;22;20386;-92
2021/01/26 05:32:52;;;;;;;5.07;2.83;;;3.10;99.90;;;;;;6282009;22;20472;-91
2021/01/26 05:35:18;;;;;;;7.87;2.83;;;3.10;99.90;;;;;;6279291;22;20430;-92
2021/01/26 05:37:46;;;;;;;9.70;3.20;;;3.20;99.90;;;;;;6278171;22;20441;-90
2021/01/26 05:40:19;;;;;;;6.90;2.63;;;3.10;99.90;;;;;;6279278;22;20786;-91
2021/01/26 05:42:50;;;;;;;3.70;2.33;;;3.00;99.90;;;;;;6278361;22;20442;-92
2021/01/26 05:45:22;;;;;;;6.40;2.80;;;3.00;99.90;;;;;;6277483;22;20476;-91
2021/01/26 05:48:00;;;;;;;8.13;2.33;;;2.90;99.90;;;;;;6279593;22;20395;-91
2021/01/26 05:50:29;;;;;;;6.90;2.33;;;2.90;99.90;;;;;;6279412;22;20410;-91
2021/01/26 05:53:03;;;;;;;7.03;2.63;;;2.80;99.90;;;;;;6279618;22;20457;-89
2021/01/26 05:55:31;;;;;;;11.03;2.70;;;2.90;99.90;;;;;;6280454;22;20487;-90
2021/01/26 05:58:08;;;;;;;6.27;2.40;;;2.90;99.90;;;;;;6279590;22;20410;-90
2021/01/26 06:00:36;;;;;;;6.70;3.97;;;2.80;99.90;;;;;;6280145;22;20402;-90
2021/01/26 06:03:10;;;;;;;4.87;2.47;;;2.60;99.90;;;;;;6279575;22;20474;-91
2021/01/26 06:05:44;;;;;;;5.63;2.73;;;2.60;99.90;;;;;;6294665;22;20431;-92
2021/01/26 06:08:15;;;;;;;7.83;3.03;;;2.60;99.90;;;;;;6282853;22;20436;-91
2021/01/26 06:10:45;;;;;;;8.13;2.50;;;2.70;99.90;;;;;;6279687;22;20489;-90
2021/01/26 06:13:13;;;;;;;5.30;3.00;;;2.80;99.90;;;;;;6279877;22;20454;-89
2021/01/26 06:15:41;;;;;;;6.20;2.77;;;2.80;99.90;;;;;;6279667;22;20465;-92
2021/01/26 06:18:14;;;;;;;5.67;2.73;;;2.70;99.90;;;;;;6279275;22;20472;-92
2021/01/26 06:20:41;;;;;;;7.13;2.80;;;2.60;99.90;;;;;;6278525;22;20407;-90
2021/01/26 06:23:18;;;;;;;6.57;2.60;;;2.60;99.90;;;;;;6279392;22;20482;-92
2021/01/26 06:25:51;;;;;;;5.53;3.07;;;2.70;99.90;;;;;;6279715;22;20426;-89
2021/01/26 06:28:41;;;;;;;5.63;2.97;;;2.70;99.90;;;;;;6281056;22;20474;-89
2021/01/26 06:31:17;;;;;;;5.27;2.73;;;2.60;99.90;;;;;;6280343;22;20406;-90
2021/01/26 06:34:06;;;;;;;9.87;2.70;;;2.60;99.90;;;;;;6279988;22;20437;-87
2021/01/26 06:36:57;;;;;;;4.27;2.40;;;2.70;99.90;;;;;;6292074;22;20402;-90
2021/01/26 06:40:13;;;;;;;9.37;2.80;;;2.70;99.90;;;;;;6295862;22;20446;-90
2021/01/26 06:42:54;;;;;;;6.47;2.47;;;2.70;99.90;;;;;;6178387;23;20418;-90
2021/01/26 06:56:07;;;;;;;9.87;2.80;;;2.70;99.90;;;;;;6300585;22;20429;-91
2021/01/26 06:59:20;;;;;;;6.53;3.07;;;2.60;99.90;;;;;;6297774;22;20411;-91
2021/01/26 07:11:23;;;;;;;7.10;3.27;;;2.70;99.90;;;;;;6276219;22;20476;-91
2021/01/26 07:14:07;;;;;;;5.80;2.90;;;2.60;99.90;;;;;;6302144;22;20446;-92
2021/01/26 07:23:20;;;;;;;10.00;2.80;;;2.70;99.90;;;;;;6298894;22;20458;-91
2021/01/26 07:26:14;;;;;;;4.53;2.63;;;2.70;99.90;;;;;;6279966;22;20434;-92
2021/01/26 07:29:18;;;;;;;8.77;2.80;;;2.70;99.90;;;;;;6273534;22;20417;-93
2021/01/26 07:31:49;;;;;;;6.00;2.83;;;2.80;99.90;;;;;;6279834;22;20410;-93
2021/01/26 07:34:24;;;;;;;9.40;2.93;;;2.80;99.90;;;;;;6281884;22;20511;-92
2021/01/26 07:36:56;;;;;;;8.03;2.97;;;2.90;99.90;;;;;;6281641;22;20469;-93
2021/01/26 07:39:30;;;;;;;10.90;2.80;;;2.90;99.90;;;;;;6283821;22;20411;-91
2021/01/26 07:42:03;;;;;;;6.53;2.70;;;2.90;99.90;;;;;;6281597;22;20429;-92
2021/01/26 07:44:39;;;;;;;4.33;2.80;;;3.00;99.90;;;;;;6282163;22;20491;-92
2021/01/26 07:47:14;;;;;;;4.53;2.57;;;3.00;99.90;;;;;;6281613;22;20795;-93
2021/01/26 07:49:57;;;;;;;7.13;3.27;;;3.00;99.90;;;;;;6280436;22;20460;-92
2021/01/26 07:52:27;;;;;;;10.75;3.13;;;3.00;99.90;;;;;;6279531;22;20458;-93
2021/01/26 07:55:01;;;;;;;6.00;3.00;;;3.00;99.90;;;;;;6279808;22;20197;-92
2021/01/26 07:57:36;;;;;;;8.73;3.17;;;3.10;99.90;;;;;;6278787;22;20418;-91
2021/01/26 08:00:09;;;;;;;7.10;2.80;;;3.10;99.90;;;;;;6279222;22;20412;-92
2021/01/26 08:02:40;;;;;;;11.77;4.67;;;3.10;99.90;;;;;;6280219;22;20399;-92
2021/01/26 08:05:10;;;;;;;11.00;3.70;;;3.20;99.90;;;;;;6282524;22;20748;-93
2021/01/26 08:07:37;;;;;;;8.03;3.00;;;3.20;99.90;;;;;;6278282;22;20452;-92
2021/01/26 08:10:07;;;;;;;93.93;16.53;;;3.20;99.90;;;;;;6281895;22;20793;-89
2021/01/26 08:12:45;;;;;;;6.17;3.37;;;3.10;99.90;;;;;;6280977;22;20501;-91
2021/01/26 08:15:19;;;;;;;3.77;2.60;;;3.30;99.90;;;;;;6279968;22;20747;-92
2021/01/26 08:17:46;;;;;;;7.75;3.63;;;3.20;99.90;;;;;;6278174;22;20388;-92
2021/01/26 08:20:32;;;;;;;5.93;3.30;;;3.20;99.90;;;;;;6283441;22;20177;-92
2021/01/26 08:23:02;;;;;;;5.63;2.90;;;3.20;99.90;;;;;;6284008;22;20452;-91
2021/01/26 08:25:31;;;;;;;3.77;3.20;;;3.20;99.90;;;;;;6283548;22;20426;-92
2021/01/26 08:28:05;;;;;;;6.43;3.03;;;3.20;99.90;;;;;;6284046;22;20394;-92
2021/01/26 08:31:25;;;;;;;6.57;2.90;;;3.30;99.90;;;;;;6284821;22;20407;-91
2021/01/26 08:33:53;;;;;;;8.07;3.43;;;3.30;99.90;;;;;;6280497;22;20445;-92
2021/01/26 08:36:34;;;;;;;8.37;2.43;;;3.10;99.90;;;;;;6280703;22;20406;-92
2021/01/26 08:39:34;;;;;;;6.40;2.60;;;3.00;99.90;;;;;;6278429;22;20391;-92
2021/01/26 08:42:00;;;;;;;6.53;2.80;;;3.20;99.90;;;;;;6278672;22;20870;-91
2021/01/26 08:44:53;;;;;;;5.57;2.63;;;3.20;99.90;;;;;;6278197;22;20434;-91
2021/01/26 08:47:44;;;;;;;6.17;2.37;;;3.20;99.90;;;;;;6279934;22;20438;-90
2021/01/26 08:50:17;;;;;;;4.47;2.57;;;3.30;99.90;;;;;;6278534;22;20426;-90
2021/01/26 08:52:44;;;;;;;8.57;3.03;;;3.20;99.90;;;;;;6279049;22;20418;-91
2021/01/26 08:55:35;;;;;;;6.10;2.57;;;3.30;99.90;;;;;;6278693;22;20465;-92
2021/01/26 08:58:01;;;;;;;7.20;3.13;;;3.40;99.90;;;;;;6278641;22;20457;-90
2021/01/26 09:00:46;;;;;;;3.30;2.37;;;3.30;99.90;;;;;;6279797;22;20433;-92
2021/01/26 09:03:34;;;;;;;5.20;2.60;;;3.40;99.90;;;;;;6278043;22;20422;-91
2021/01/26 09:06:04;;;;;;;2.93;2.60;;;3.40;99.90;;;;;;6279067;22;20471;-91
2021/01/26 09:08:51;;;;;;;8.03;2.57;;;3.40;99.90;;;;;;6279810;22;20434;-91
2021/01/26 09:11:27;;;;;;;6.77;2.50;;;3.60;99.90;;;;;;6282066;22;20517;-93
2021/01/26 09:14:03;;;;;;;4.33;2.57;;;3.70;99.90;;;;;;6281216;22;20452;-91
2021/01/26 09:16:31;;;;;;;3.80;2.47;;;3.80;99.90;;;;;;6278012;22;20378;-93
2021/01/26 09:19:02;;;;;;;4.83;2.37;;;3.90;99.90;;;;;;6278293;22;20862;-91
2021/01/26 09:21:34;;;;;;;5.83;2.70;;;4.00;99.90;;;;;;6280182;22;20402;-93
2021/01/26 09:24:02;;;;;;;10.10;2.57;;;4.10;99.90;;;;;;6279935;22;20507;-92
2021/01/26 09:26:30;;;;;;;3.43;2.40;;;4.30;99.90;;;;;;6280242;22;20441;-93
2021/01/26 09:28:57;;;;;;;8.63;2.70;;;4.30;99.90;;;;;;6280471;22;20403;-92
2021/01/26 09:31:26;;;;;;;6.73;2.23;;;4.50;99.90;;;;;;6280154;22;20480;-92
2021/01/26 09:34:03;;;;;;;9.47;3.07;;;4.70;99.90;;;;;;6279722;22;20417;-92
2021/01/26 09:36:30;;;;;;;5.47;2.50;;;4.60;99.90;;;;;;6280702;22;20378;-91
2021/01/26 09:39:03;;;;;;;6.83;2.40;;;4.60;99.90;;;;;;6280094;22;20697;-91
2021/01/26 09:41:31;;;;;;;3.17;2.40;;;4.50;99.90;;;;;;6279625;22;20740;-91
2021/01/26 09:44:03;;;;;;;4.07;2.30;;;4.50;99.90;;;;;;6279753;22;20805;-92
2021/01/26 09:46:32;;;;;;;6.20;3.47;;;4.40;99.90;;;;;;6279534;22;20414;-91
2021/01/26 09:49:11;;;;;;;5.43;2.37;;;4.50;99.90;;;;;;6279702;22;20402;-94
2021/01/26 09:51:41;;;;;;;4.70;2.13;;;4.60;99.90;;;;;;6280379;22;20869;-91
2021/01/26 09:54:16;;;;;;;11.00;2.57;;;4.60;99.90;;;;;;6280212;22;20517;-91
2021/01/26 09:56:43;;;;;;;4.47;2.40;;;4.60;99.90;;;;;;6279600;22;20378;-93
2021/01/26 09:59:12;;;;;;;3.23;2.37;;;4.50;99.90;;;;;;6279492;22;20462;-92
2021/01/26 10:01:41;;;;;;;5.20;2.83;;;4.60;99.90;;;;;;6279196;22;20422;-92
2021/01/26 10:04:10;;;;;;;5.37;2.30;;;4.70;99.90;;;;;;6279281;22;20418;-92
2021/01/26 10:06:37;;;;;;;3.40;2.07;;;4.80;99.90;;;;;;6280356;22;20402;-92
2021/01/26 10:09:28;;;;;;;4.80;2.50;;;4.90;99.90;;;;;;6280825;22;20452;-93
2021/01/26 10:12:17;;;;;;;4.23;2.70;;;5.10;99.90;;;;;;6264426;22;20410;-93
2021/01/26 10:15:22;;;;;;;4.70;2.40;;;5.10;99.90;;;;;;6285006;22;20450;-93
2021/01/26 10:18:14;;;;;;;6.17;2.40;;;5.10;99.90;;;;;;6290799;22;20394;-95
2021/01/26 10:20:55;;;;;;;4.67;2.93;;;5.20;99.90;;;;;;6279396;22;20415;-92
2021/01/26 10:23:34;;;;;;;5.67;2.97;;;5.20;99.90;;;;;;6278719;22;20483;-92
2021/01/26 10:26:10;;;;;;;6.40;2.97;;;5.30;99.90;;;;;;6278347;22;20426;-94
2021/01/26 10:28:52;;;;;;;4.87;3.00;;;5.30;99.90;;;;;;6279281;22;20432;-93
2021/01/26 10:31:19;;;;;;;4.27;2.33;;;5.40;99.90;;;;;;6278837;22;20605;-93
2021/01/26 10:33:46;;;;;;;3.70;2.20;;;5.30;99.90;;;;;;6278932;22;20537;-91
2021/01/26 10:36:25;;;;;;;6.47;2.50;;;5.50;99.90;;;;;;6278976;22;20177;-93
2021/01/26 10:38:52;;;;;;;8.20;2.40;;;5.50;99.90;;;;;;6279452;22;20204;-93
2021/01/26 10:41:26;;;;;;;5.23;2.70;;;5.50;99.90;;;;;;6279569;22;20257;-91
2021/01/26 10:46:32;;;;;;;5.77;2.70;;;5.80;99.90;;;;;;6276883;22;20290;-93
2021/01/26 10:49:17;;;;;;;8.10;2.90;;;5.90;99.90;;;;;;6281149;22;20173;-93
2021/01/26 10:51:45;;;;;;;6.63;2.60;;;5.80;99.90;;;;;;6279306;22;20165;-94
2021/01/26 10:54:12;;;;;;;4.80;2.60;;;6.00;99.90;;;;;;6278827;22;20205;-93
2021/01/26 10:56:38;;;;;;;7.32;3.60;;;5.80;99.90;;;;;;6278542;22;20870;-94
2021/01/26 10:59:05;;;;;;;4.60;2.83;;;5.90;99.90;;;;;;6279669;22;20178;-94
2021/01/26 11:01:32;;;;;;;9.60;3.17;;;5.90;99.90;;;;;;6279819;22;20240;-94
2021/01/26 11:03:58;;;;;;;5.87;2.87;;;6.00;99.90;;;;;;6279381;22;20208;-93
2021/01/26 11:06:26;;;;;;;4.57;2.80;;;5.90;99.90;;;;;;6279066;22;20173;-94
2021/01/26 11:08:53;;;;;;;6.40;3.10;;;5.90;99.90;;;;;;6279450;22;20174;-95
2021/01/26 11:11:22;;;;;;;5.13;2.73;;;5.90;99.90;;;;;;6279212;22;20172;-93
2021/01/26 11:13:49;;;;;;;5.23;2.60;;;6.00;99.90;;;;;;6279103;22;20264;-93
2021/01/26 11:16:15;;;;;;;4.60;2.80;;;6.20;99.90;;;;;;6282982;22;20181;-92
2021/01/26 11:18:42;;;;;;;5.53;2.50;;;6.10;99.90;;;;;;6287432;22;20193;-94
2021/01/26 11:21:09;;;;;;;7.17;2.77;;;6.30;99.90;;;;;;6284270;22;20169;-93
2021/01/26 11:23:36;;;;;;;4.82;2.25;;;6.40;99.90;;;;;;6280532;22;20336;-92
2021/01/26 11:26:03;;;;;;;5.83;2.87;;;6.50;99.90;;;;;;6278863;22;20272;-94
2021/01/26 11:28:30;;;;;;;8.50;3.63;;;6.60;99.90;;;;;;6278939;22;20248;-94
2021/01/26 11:30:57;;;;;;;6.10;2.60;;;6.60;99.90;;;;;;6278748;22;20200;-94
2021/01/26 11:33:23;;;;;;;6.57;2.67;;;6.80;99.90;;;;;;6278980;22;20721;-94
2021/01/26 11:35:50;;;;;;;9.17;3.40;;;6.90;99.90;;;;;;6278745;22;20265;-96
2021/01/26 11:38:16;;;;;;;10.53;3.60;;;6.70;99.90;;;;;;6278882;22;20229;-93
2021/01/26 11:40:43;;;;;;;5.13;2.77;;;6.80;99.90;;;;;;6278771;22;20231;-93
2021/01/26 11:43:10;;;;;;;5.67;2.50;;;6.70;99.90;;;;;;6281576;22;20204;-90
2021/01/26 11:45:38;;;;;;;4.30;2.80;;;6.80;99.90;;;;;;6278770;22;20220;-93
2021/01/26 11:48:07;;;;;;;4.87;2.77;;;6.80;99.90;;;;;;6278527;22;20247;-94
2021/01/26 11:50:34;;;;;;;4.63;2.53;;;6.70;99.90;;;;;;6278685;22;20188;-94
2021/01/26 11:53:01;;;;;;;6.60;3.45;;;6.80;99.90;;;;;;6250064;22;20392;-96
2021/01/26 11:55:31;;;;;;;6.10;2.83;;;6.90;99.90;;;;;;6251830;22;20238;-93
2021/01/26 11:57:57;;;;;;;6.23;2.80;;;7.00;99.90;;;;;;6281997;22;20218;-93
2021/01/26 12:00:28;;;;;;;3.00;2.60;;;6.90;99.90;;;;;;6279213;22;20173;-93
2021/01/26 12:02:55;;;;;;;8.17;3.70;;;6.80;99.90;;;;;;6278721;22;20509;-94
2021/01/26 12:05:24;;;;;;;5.57;3.50;;;6.80;99.90;;;;;;6278734;22;20194;-94
2021/01/26 12:07:50;;;;;;;7.40;3.20;;;6.80;99.90;;;;;;6278324;22;20226;-93
2021/01/26 12:10:17;;;;;;;7.80;3.80;;;6.80;99.90;;;;;;6250773;22;20227;-93
2021/01/26 12:12:44;;;;;;;8.23;4.37;;;6.70;99.90;;;;;;6251591;22;20188;-93
2021/01/26 12:15:13;;;;;;;7.30;3.63;;;6.70;99.90;;;;;;6278920;22;20215;-93
2021/01/26 12:17:40;;;;;;;10.68;4.20;;;6.60;99.90;;;;;;6278546;22;20761;-95
2021/01/26 12:20:08;;;;;;;7.80;4.20;;;6.50;99.90;;;;;;6279002;22;20275;-93
2021/01/26 12:22:35;;;;;;;7.67;3.60;;;6.50;99.90;;;;;;6278157;22;20177;-94
2021/01/26 12:25:01;;;;;;;10.07;4.13;;;6.50;99.90;;;;;;6278419;22;20280;-94
2021/01/26 12:27:28;;;;;;;7.97;3.77;;;6.50;99.90;;;;;;6278228;22;20208;-94
2021/01/26 12:29:54;;;;;;;8.23;4.60;;;6.40;99.90;;;;;;6278491;22;20636;-94
2021/01/26 12:32:21;;;;;;;6.80;3.90;;;6.30;99.90;;;;;;6278284;22;20252;-94
2021/01/26 12:34:48;;;;;;;8.53;3.67;;;6.30;99.90;;;;;;6277952;22;20281;-94
2021/01/26 12:37:15;;;;;;;4.93;3.70;;;6.40;99.90;;;;;;6281857;22;20240;-94
2021/01/26 12:39:42;;;;;;;4.27;3.53;;;6.20;99.90;;;;;;6280497;22;20176;-93
2021/01/26 12:42:08;;;;;;;10.10;3.50;;;6.30;99.90;;;;;;6279192;22;20173;-94
2021/01/26 12:44:35;;;;;;;7.27;3.47;;;6.40;99.90;;;;;;6277637;22;20313;-94
2021/01/26 12:47:01;;;;;;;11.13;3.73;;;6.50;99.90;;;;;;6278736;22;20189;-95
2021/01/26 12:49:28;;;;;;;7.53;3.97;;;6.60;99.90;;;;;;6278328;22;20172;-93
2021/01/26 12:51:55;;;;;;;4.03;3.23;;;6.40;99.90;;;;;;6279665;22;20590;-93
2021/01/26 12:54:22;;;;;;;5.53;3.23;;;6.50;99.90;;;;;;6278915;22;20205;-92
2021/01/26 12:56:48;;;;;;;9.10;4.03;;;6.30;99.90;;;;;;6278117;22;20513;-93
2021/01/26 12:59:15;;;;;;;8.10;3.33;;;6.30;99.90;;;;;;6278077;22;20177;-93
2021/01/26 13:01:41;;;;;;;6.33;3.50;;;6.40;99.90;;;;;;6278577;22;20177;-92
2021/01/26 13:04:08;;;;;;;14.40;5.27;;;6.50;99.90;;;;;;6278382;22;20300;-92
2021/01/26 13:06:34;;;;;;;6.17;3.83;;;6.50;99.90;;;;;;6277891;22;20677;-94
2021/01/26 13:09:02;;;;;;;6.10;3.30;;;6.60;99.90;;;;;;6281844;22;20252;-93
2021/01/26 13:11:28;;;;;;;7.27;3.73;;;6.70;99.90;;;;;;6278077;22;20197;-94
2021/01/26 13:13:54;;;;;;;8.43;3.77;;;6.70;99.90;;;;;;6277548;22;20201;-93
2021/01/26 13:16:21;;;;;;;7.23;3.87;;;6.70;99.90;;;;;;6278337;22;20166;-95
2021/01/26 13:18:48;;;;;;;7.47;3.10;;;6.60;99.90;;;;;;6277929;22;20173;-93
2021/01/26 13:21:14;;;;;;;10.90;3.00;;;6.60;99.90;;;;;;6277570;22;20248;-92
2021/01/26 13:23:41;;;;;;;12.70;3.03;;;6.60;99.90;;;;;;6279371;22;20212;-94
2021/01/26 13:26:08;;;;;;;5.80;3.37;;;6.60;99.90;;;;;;6284453;22;20189;-93
2021/01/26 13:28:35;;;;;;;6.03;3.00;;;6.70;99.90;;;;;;6279994;22;20177;-94
2021/01/26 13:31:02;;;;;;;5.73;2.73;;;6.60;99.90;;;;;;6277527;22;20196;-94
2021/01/26 13:33:28;;;;;;;9.57;3.33;;;6.50;99.90;;;;;;6276651;22;20282;-91
2021/01/26 13:35:55;;;;;;;3.93;2.63;;;6.50;99.90;;;;;;6277299;22;20197;-92
2021/01/26 13:38:21;;;;;;;5.87;3.53;;;6.50;99.90;;;;;;6277465;22;20227;-93
2021/01/26 13:40:48;;;;;;;7.00;3.30;;;6.70;99.90;;;;;;6276756;22;20179;-93
2021/01/26 13:43:15;;;;;;;5.67;2.87;;;6.80;99.90;;;;;;6278248;22;20244;-93
2021/01/26 13:45:42;;;;;;;8.60;3.20;;;6.90;99.90;;;;;;6277359;22;20232;-93
2021/01/26 13:48:08;;;;;;;3.70;2.93;;;7.00;99.90;;;;;;6277851;22;20161;-93
2021/01/26 13:50:36;;;;;;;5.23;3.20;;;7.00;99.90;;;;;;6276841;22;20230;-93
2021/01/26 13:53:04;;;;;;;2.73;2.53;;;7.10;99.90;;;;;;6277059;22;20231;-93
2021/01/26 13:55:31;;;;;;;4.57;2.77;;;7.10;99.90;;;;;;6276851;22;20264;-93
2021/01/26 13:57:58;;;;;;;12.27;3.50;;;7.20;99.90;;;;;;6277054;22;20170;-93
2021/01/26 14:00:29;;;;;;;2.73;2.53;;;7.30;99.90;;;;;;6276993;22;20179;-92
2021/01/26 14:02:58;;;;;;;4.20;2.87;;;7.20;99.90;;;;;;6277815;22;20545;-94
2021/01/26 14:05:25;;;;;;;8.83;3.03;;;7.10;99.90;;;;;;6277184;22;20236;-92
2021/01/26 14:07:52;;;;;;;5.43;2.53;;;7.10;99.90;;;;;;6279910;22;20652;-93
2021/01/26 14:10:19;;;;;;;4.50;2.93;;;7.00;99.90;;;;;;6279541;22;20208;-95
2021/01/26 14:12:46;;;;;;;7.37;3.07;;;6.80;99.90;;;;;;6278569;22;20253;-92
2021/01/26 14:15:17;;;;;;;6.50;2.80;;;6.80;99.90;;;;;;6290460;22;20216;-94
2021/01/26 14:17:49;;;;;;;7.20;4.83;;;6.80;99.90;;;;;;6289173;22;20184;-94
2021/01/26 14:20:17;;;;;;;6.03;2.60;;;6.80;99.90;;;;;;6284557;22;20180;-94
2021/01/26 14:22:53;;;;;;;3.23;2.80;;;6.70;99.90;;;;;;6290968;22;20182;-96
2021/01/26 14:25:22;;;;;;;5.90;3.13;;;6.80;99.90;;;;;;6296447;22;20211;-95
2021/01/26 14:27:52;;;;;;;2.73;2.53;;;6.80;99.90;;;;;;6294010;22;20177;-91
2021/01/26 14:48:33;;;;;;;5.50;3.10;;;6.50;99.90;;;;;;6297500;22;20207;-95
2021/01/26 14:51:02;;;;;;;3.20;2.63;;;6.50;99.90;;;;;;6294198;22;20177;-94
2021/01/26 14:53:29;;;;;;;3.53;2.60;;;6.50;99.90;;;;;;6291688;22;20186;-94
2021/01/26 14:55:55;;;;;;;6.97;3.10;;;6.40;99.90;;;;;;6296537;22;20198;-94
2021/01/26 14:58:22;;;;;;;3.67;2.57;;;6.40;99.90;;;;;;6291090;22;20167;-93
2021/01/26 15:00:48;;;;;;;3.83;3.13;;;6.50;99.90;;;;;;6291814;22;20196;-95
2021/01/26 15:03:15;;;;;;;4.20;3.13;;;6.50;99.90;;;;;;6287908;22;20200;-95
2021/01/26 15:05:41;;;;;;;2.53;2.37;;;6.40;99.90;;;;;;6280363;22;20197;-92
2021/01/26 15:08:09;;;;;;;6.63;2.60;;;6.70;99.90;;;;;;6278503;22;20265;-92
2021/01/26 15:10:35;;;;;;;3.23;2.70;;;6.60;99.90;;;;;;6278586;22;20183;-91
2021/01/26 15:13:02;;;;;;;5.30;2.87;;;6.60;99.90;;;;;;6278676;22;20248;-92
2021/01/26 15:15:29;;;;;;;6.47;3.00;;;6.60;99.90;;;;;;6278667;22;20284;-91
2021/01/26 15:17:55;;;;;;;3.17;2.70;;;6.50;99.90;;;;;;6278714;22;20260;-91
2021/01/26 15:20:25;;;;;;;3.40;2.63;;;6.50;99.90;;;;;;6278083;22;20173;-93
2021/01/26 15:22:52;;;;;;;3.97;3.17;;;6.40;99.90;;;;;;6279347;22;20244;-93
2021/01/26 15:25:20;;;;;;;5.73;3.17;;;6.20;99.90;;;;;;6281136;22;20276;-94
2021/01/26 15:27:47;;;;;;;5.90;3.10;;;6.30;99.90;;;;;;6254034;22;20184;-93
2021/01/26 15:30:17;;;;;;;7.30;3.23;;;6.30;99.90;;;;;;6281194;22;20249;-93
2021/01/26 15:32:43;;;;;;;9.23;3.43;;;6.20;99.90;;;;;;6278913;22;20199;-93
2021/01/26 15:35:10;;;;;;;4.97;3.27;;;6.20;99.90;;;;;;6278049;22;20656;-94
2021/01/26 15:37:37;;;;;;;4.67;3.27;;;6.20;99.90;;;;;;6278414;22;20248;-90
2021/01/26 15:40:07;;;;;;;5.73;3.30;;;6.20;99.90;;;;;;6279671;22;20527;-94
2021/01/26 15:42:35;;;;;;;8.70;3.50;;;6.20;99.90;;;;;;6281182;22;20189;-94
2021/01/26 15:45:01;;;;;;;8.03;4.13;;;6.10;99.90;;;;;;6280206;22;20780;-95
2021/01/26 15:47:27;;;;;;;3.60;3.30;;;6.10;99.90;;;;;;6278505;22;20196;-94
2021/01/26 15:52:35;;;;;;;4.73;3.77;;;6.30;99.90;;;;;;6284480;22;20184;-92
2021/01/26 15:55:01;;;;;;;5.47;3.37;;;6.30;99.90;;;;;;6276879;22;20657;-91
2021/01/26 15:57:27;;;;;;;7.77;3.90;;;6.30;99.90;;;;;;6277662;22;20176;-92
2021/01/26 15:59:55;;;;;;;6.30;4.03;;;6.20;99.90;;;;;;6278358;22;20165;-93
2021/01/26 16:02:21;;;;;;;4.93;3.33;;;6.10;99.90;;;;;;6278123;22;20162;-95
2021/01/26 16:04:47;;;;;;;5.40;3.53;;;6.10;99.90;;;;;;6277927;22;20675;-93
2021/01/26 16:07:14;;;;;;;6.40;3.80;;;6.00;99.90;;;;;;6277850;22;20177;-94
2021/01/26 16:09:41;;;;;;;7.40;4.33;;;6.10;99.90;;;;;;6277416;22;20175;-93
2021/01/26 16:12:08;;;;;;;9.87;4.60;;;6.30;99.90;;;;;;6277803;22;20174;-92
2021/01/26 16:14:35;;;;;;;8.75;6.22;;;6.40;99.90;;;;;;6276132;22;20470;-93
2021/01/26 16:17:02;;;;;;;12.57;5.10;;;6.40;99.90;;;;;;6277826;22;20256;-94
2021/01/26 16:19:28;;;;;;;15.00;6.23;;;6.40;99.90;;;;;;6278108;22;20252;-93
2021/01/26 16:21:55;;;;;;;8.33;5.30;;;6.40;99.90;;;;;;6277942;22;20240;-93
2021/01/26 16:24:21;;;;;;;10.73;4.83;;;6.20;99.90;;;;;;6277761;22;20251;-92
2021/01/26 16:26:48;;;;;;;10.63;5.00;;;6.10;99.90;;;;;;6278124;22;20560;-94
2021/01/26 16:29:14;;;;;;;8.30;5.00;;;6.00;99.90;;;;;;6277596;22;20173;-94
2021/01/26 16:31:43;;;;;;;9.47;5.47;;;5.80;99.90;;;;;;6282764;22;20229;-95
2021/01/26 16:34:30;;;;;;;13.13;5.17;;;5.60;99.90;;;;;;6295266;22;20216;-94
2021/01/26 16:39:51;;;;;;;8.90;4.37;;;5.70;99.90;;;;;;6296888;22;20177;-95
2021/01/26 16:42:26;;;;;;;9.77;4.87;;;5.60;99.90;;;;;;6298215;22;20185;-93
2021/01/26 16:51:10;;;;;;;8.17;4.73;;;5.40;99.90;;;;;;6289324;22;20173;-95